TimeEST,TemperatureF,Dew PointF,Humidity,Sea Level PressureIn,VisibilityMPH,Wind Direction,Wind SpeedMPH,Gust SpeedMPH,PrecipitationIn,Events,Conditions,WindDirDegrees,DateUTC
12:54 AM,39.9,26.1,58,30.45,10.0,Calm,Calm,-,N/A,,Clear,0,2012-11-17 05:54:00
1:54 AM,39.9,26.1,58,30.47,10.0,North,4.6,-,N/A,,Clear,350,2012-11-17 06:54:00
2:54 AM,39.0,26.1,60,30.48,10.0,NNW,4.6,-,N/A,,Clear,340,2012-11-17 07:54:00
3:54 AM,37.9,26.1,62,30.49,10.0,Calm,Calm,-,N/A,,Clear,0,2012-11-17 08:54:00
4:54 AM,33.1,27.0,78,30.51,10.0,NW,3.5,-,N/A,,Clear,320,2012-11-17 09:54:00
5:54 AM,32.0,27.0,82,30.52,10.0,Calm,Calm,-,N/A,,Clear,0,2012-11-17 10:54:00
6:54 AM,32.0,27.0,82,30.54,10.0,Calm,Calm,-,N/A,,Clear,0,2012-11-17 11:54:00
7:54 AM,39.9,28.0,63,30.56,10.0,North,4.6,-,N/A,,Clear,360,2012-11-17 12:54:00
8:54 AM,44.1,28.9,55,30.58,10.0,NNE,8.1,-,N/A,,Clear,30,2012-11-17 13:54:00
9:54 AM,46.9,27.0,46,30.59,10.0,NE,13.8,24.2,N/A,,Clear,40,2012-11-17 14:54:00
10:54 AM,48.0,27.0,44,30.60,10.0,ENE,10.4,-,N/A,,Clear,70,2012-11-17 15:54:00
11:54 AM,50.0,25.0,38,30.58,10.0,NE,9.2,-,N/A,,Clear,40,2012-11-17 16:54:00
12:54 PM,52.0,25.0,35,30.56,10.0,East,9.2,-,N/A,,Partly Cloudy,80,2012-11-17 17:54:00
1:54 PM,52.0,25.0,35,30.56,10.0,East,6.9,-,N/A,,Partly Cloudy,90,2012-11-17 18:54:00
2:54 PM,53.1,25.0,34,30.56,10.0,East,5.8,-,N/A,,Partly Cloudy,90,2012-11-17 19:54:00
3:54 PM,51.1,25.0,36,30.57,10.0,East,6.9,-,N/A,,Partly Cloudy,100,2012-11-17 20:54:00
4:54 PM,50.0,25.0,38,30.57,10.0,East,5.8,-,N/A,,Scattered Clouds,80,2012-11-17 21:54:00
5:54 PM,45.0,27.0,49,30.58,10.0,Calm,Calm,-,N/A,,Scattered Clouds,0,2012-11-17 22:54:00
6:54 PM,39.9,28.9,65,30.59,10.0,Calm,Calm,-,N/A,,Mostly Cloudy,0,2012-11-17 23:54:00
7:54 PM,39.0,28.9,67,30.60,10.0,Calm,Calm,-,N/A,,Mostly Cloudy,0,2012-11-18 00:54:00
8:54 PM,36.0,30.0,79,30.60,10.0,Calm,Calm,-,N/A,,Mostly Cloudy,0,2012-11-18 01:54:00
9:54 PM,37.9,28.9,70,30.61,10.0,SW,3.5,-,N/A,,Mostly Cloudy,230,2012-11-18 02:54:00
10:54 PM,35.1,30.0,82,30.60,10.0,Calm,Calm,-,N/A,,Mostly Cloudy,0,2012-11-18 03:54:00
11:54 PM,37.0,30.0,76,30.60,10.0,Calm,Calm,-,N/A,,Mostly Cloudy,0,2012-11-18 04:54:00